createdAt,value
2023-02-16T00:00:51.780Z,18.60
2023-02-16T00:01:51.643Z,18.60
2023-02-16T00:02:51.537Z,18.10
2023-02-16T00:03:51.472Z,18.10
2023-02-16T00:04:51.313Z,18.40
2023-02-16T00:05:51.222Z,18.20
2023-02-16T00:06:51.115Z,18.70
2023-02-16T00:07:51.014Z,18.20
2023-02-16T00:08:50.904Z,18.70
2023-02-16T00:09:50.789Z,18.50
2023-02-16T00:10:50.686Z,19.60
2023-02-16T00:11:50.564Z,19.20
2023-02-16T00:12:50.481Z,19.10
2023-02-16T00:13:50.367Z,18.10
2023-02-16T00:14:50.265Z,19.70
2023-02-16T00:15:50.180Z,19.80
2023-02-16T00:16:50.056Z,19.60
2023-02-16T00:17:49.946Z,20.20
2023-02-16T00:18:49.845Z,19.30
2023-02-16T00:19:49.739Z,19.30
2023-02-16T00:20:49.660Z,20.00
2023-02-16T00:21:49.548Z,19.20
2023-02-16T00:22:49.436Z,19.40
2023-02-16T00:23:49.340Z,20.30
2023-02-16T00:24:49.227Z,19.30
2023-02-16T00:25:49.148Z,19.30
2023-02-16T00:26:49.036Z,20.20
2023-02-16T00:27:48.936Z,19.40
2023-02-16T00:28:48.818Z,20.00
2023-02-16T00:29:48.721Z,20.30
2023-02-16T00:30:48.765Z,19.30
2023-02-16T00:31:48.642Z,18.00
2023-02-16T00:32:48.420Z,20.90
2023-02-16T00:33:48.325Z,19.10
2023-02-16T00:34:48.213Z,18.90
2023-02-16T00:35:48.146Z,19.00
2023-02-16T00:36:48.010Z,19.00
2023-02-16T00:37:47.926Z,18.40
2023-02-16T00:38:47.818Z,19.50
2023-02-16T00:39:47.709Z,18.80
2023-02-16T00:40:47.613Z,19.60
2023-02-16T00:41:47.504Z,20.00
2023-02-16T00:42:47.395Z,19.60
2023-02-16T00:43:47.315Z,20.20
2023-02-16T00:44:47.209Z,19.70
2023-02-16T00:45:47.121Z,19.90
2023-02-16T00:46:47.004Z,20.30
2023-02-16T00:47:46.923Z,19.90
2023-02-16T00:48:46.806Z,20.60
2023-02-16T00:49:46.719Z,21.30
2023-02-16T00:50:46.636Z,21.00
2023-02-16T00:51:46.546Z,20.80
2023-02-16T00:52:46.435Z,20.60
2023-02-16T00:53:46.326Z,22.40
2023-02-16T00:54:46.241Z,20.40
2023-02-16T00:55:46.144Z,21.20
2023-02-16T00:56:46.040Z,20.70
2023-02-16T00:57:45.942Z,22.10
2023-02-16T00:58:45.828Z,19.70
2023-02-16T00:59:45.738Z,19.90
2023-02-16T01:00:45.657Z,20.90
2023-02-16T01:01:45.590Z,20.00
2023-02-16T01:02:45.458Z,20.90
2023-02-16T01:03:45.367Z,20.10
2023-02-16T01:04:45.315Z,19.30
2023-02-16T01:05:45.179Z,18.90
2023-02-16T01:06:45.057Z,19.80
2023-02-16T01:07:44.956Z,19.50
2023-02-16T01:08:44.875Z,19.10
2023-02-16T01:09:44.758Z,19.70
2023-02-16T01:10:44.655Z,19.30
2023-02-16T01:11:44.556Z,20.00
2023-02-16T01:12:44.445Z,19.00
2023-02-16T01:13:44.354Z,18.20
2023-02-16T01:14:44.261Z,19.40
2023-02-16T01:15:44.191Z,18.30
2023-02-16T01:16:44.047Z,18.60
2023-02-16T01:17:43.947Z,19.00
2023-02-16T01:18:43.859Z,18.70
2023-02-16T01:19:43.746Z,18.00
2023-02-16T01:20:43.645Z,19.60
2023-02-16T01:21:43.536Z,19.30
2023-02-16T01:22:43.445Z,20.50
2023-02-16T01:23:43.341Z,19.60
2023-02-16T01:24:43.237Z,17.90
2023-02-16T01:25:43.155Z,19.90
2023-02-16T01:26:43.070Z,19.40
2023-02-16T01:27:42.936Z,19.40
2023-02-16T01:28:42.836Z,19.10
2023-02-16T01:29:42.743Z,19.70
2023-02-16T01:30:42.627Z,20.10
2023-02-16T01:31:42.618Z,19.20
2023-02-16T01:32:42.418Z,19.20
2023-02-16T01:33:42.330Z,19.70
2023-02-16T01:34:42.242Z,19.20
2023-02-16T01:35:42.146Z,20.60
2023-02-16T01:36:42.049Z,18.60
2023-02-16T01:37:41.935Z,19.00
2023-02-16T01:38:41.839Z,19.60
2023-02-16T01:39:41.739Z,18.90
2023-02-16T01:40:41.647Z,18.50
2023-02-16T01:41:41.540Z,18.40
2023-02-16T01:42:41.430Z,18.90
2023-02-16T01:43:41.341Z,18.90
2023-02-16T01:44:41.228Z,19.20
2023-02-16T01:45:41.141Z,18.60
2023-02-16T01:46:41.078Z,19.60
2023-02-16T01:47:40.930Z,18.90
2023-02-16T01:48:40.833Z,19.00
2023-02-16T01:49:40.732Z,19.10
2023-02-16T01:50:40.642Z,19.70
2023-02-16T01:51:40.543Z,19.10
2023-02-16T01:52:40.471Z,19.20
2023-02-16T01:53:40.373Z,18.50
2023-02-16T01:54:40.292Z,20.00
2023-02-16T01:55:40.194Z,18.70
2023-02-16T01:56:40.083Z,19.10
2023-02-16T01:57:39.988Z,19.50
2023-02-16T01:58:39.877Z,19.70
2023-02-16T01:59:39.795Z,20.60
2023-02-16T02:00:39.694Z,21.60
2023-02-16T02:01:39.603Z,19.70
2023-02-16T02:02:39.587Z,19.80
2023-02-16T02:03:39.393Z,19.80
2023-02-16T02:04:39.284Z,20.20
2023-02-16T02:05:39.223Z,21.00
2023-02-16T02:06:39.104Z,21.20
2023-02-16T02:07:39.014Z,19.40
2023-02-16T02:08:38.916Z,20.50
2023-02-16T02:09:38.857Z,20.80
2023-02-16T02:10:38.735Z,19.20
2023-02-16T02:11:38.638Z,19.30
2023-02-16T02:12:38.525Z,20.00
2023-02-16T02:13:38.425Z,19.70
2023-02-16T02:14:38.329Z,20.60
2023-02-16T02:15:38.236Z,21.40
2023-02-16T02:16:38.165Z,20.60
2023-02-16T02:17:38.050Z,20.40
2023-02-16T02:18:37.954Z,19.30
2023-02-16T02:19:37.846Z,20.20
2023-02-16T02:20:37.769Z,19.30
2023-02-16T02:21:37.667Z,20.90
2023-02-16T02:22:37.557Z,20.50
2023-02-16T02:23:37.469Z,20.70
2023-02-16T02:24:37.377Z,20.50
2023-02-16T02:25:37.310Z,22.10
2023-02-16T02:26:37.187Z,19.50
2023-02-16T02:27:37.108Z,21.30
2023-02-16T02:28:36.997Z,20.30
2023-02-16T02:29:36.905Z,20.40
2023-02-16T02:30:36.804Z,21.70
2023-02-16T02:31:36.769Z,20.60
2023-02-16T02:32:36.615Z,20.10
2023-02-16T02:33:36.515Z,19.80
2023-02-16T02:34:36.442Z,19.80
2023-02-16T02:35:36.340Z,20.10
2023-02-16T02:36:36.248Z,19.90
2023-02-16T02:37:36.155Z,19.60
2023-02-16T02:38:36.075Z,20.50
2023-02-16T02:39:35.967Z,19.80
2023-02-16T02:40:35.892Z,20.30
2023-02-16T02:41:35.787Z,20.50
2023-02-16T02:42:35.690Z,19.80
2023-02-16T02:43:35.593Z,19.90
2023-02-16T02:44:35.505Z,19.20
2023-02-16T02:45:35.428Z,19.10
2023-02-16T02:46:35.480Z,19.80
2023-02-16T02:47:35.219Z,19.60
2023-02-16T02:48:35.134Z,20.10
2023-02-16T02:49:35.064Z,18.80
2023-02-16T02:50:34.958Z,19.70
2023-02-16T02:51:34.847Z,20.00
2023-02-16T02:52:34.759Z,20.00
2023-02-16T02:53:34.664Z,20.40
2023-02-16T02:54:34.558Z,20.70
2023-02-16T02:55:34.482Z,20.20
2023-02-16T02:56:34.388Z,20.50
2023-02-16T02:57:34.292Z,20.80
2023-02-16T02:58:34.188Z,20.00
2023-02-16T02:59:34.101Z,22.30
2023-02-16T03:00:34.056Z,19.90
2023-02-16T03:01:33.918Z,21.90
2023-02-16T03:02:33.820Z,20.10
2023-02-16T03:03:33.743Z,21.60
2023-02-16T03:04:33.639Z,21.10
2023-02-16T03:05:33.541Z,20.90
2023-02-16T03:06:33.472Z,20.10
2023-02-16T03:07:33.361Z,21.20
2023-02-16T03:08:33.262Z,21.60
2023-02-16T03:09:33.168Z,21.60
2023-02-16T03:10:33.103Z,21.10
2023-02-16T03:11:32.991Z,20.90
2023-02-16T03:12:32.891Z,20.90
2023-02-16T03:13:32.792Z,20.60
2023-02-16T03:14:32.718Z,22.40
2023-02-16T03:15:32.638Z,22.90
2023-02-16T03:16:32.572Z,21.70
2023-02-16T03:17:32.426Z,21.50
2023-02-16T03:18:32.346Z,21.40
2023-02-16T03:19:32.242Z,20.60
2023-02-16T03:20:32.162Z,21.10
2023-02-16T03:21:32.063Z,21.20
2023-02-16T03:22:31.981Z,19.90
2023-02-16T03:23:31.872Z,21.20
2023-02-16T03:24:31.793Z,20.90
2023-02-16T03:25:31.712Z,21.20
2023-02-16T03:26:31.603Z,21.40
2023-02-16T03:27:31.511Z,20.90
2023-02-16T03:28:31.425Z,20.90
2023-02-16T03:29:31.320Z,20.70
2023-02-16T03:30:31.395Z,21.20
2023-02-16T03:31:31.268Z,21.60
2023-02-16T03:32:31.051Z,22.10
2023-02-16T03:33:30.955Z,20.90
2023-02-16T03:34:30.853Z,21.30
2023-02-16T03:35:30.761Z,21.20
2023-02-16T03:36:30.659Z,20.70
2023-02-16T03:37:30.551Z,20.90
2023-02-16T03:38:30.464Z,21.80
2023-02-16T03:39:30.348Z,21.60
2023-02-16T03:40:30.336Z,22.80
2023-02-16T03:41:30.149Z,22.10
2023-02-16T03:42:30.061Z,21.80
2023-02-16T03:43:29.958Z,21.80
2023-02-16T03:44:29.855Z,20.90
2023-02-16T03:45:29.830Z,21.80
2023-02-16T03:46:29.662Z,22.40
2023-02-16T03:47:29.561Z,21.50
2023-02-16T03:48:29.462Z,20.80
2023-02-16T03:49:29.368Z,20.50
2023-02-16T03:50:29.281Z,21.00
2023-02-16T03:51:29.172Z,22.70
2023-02-16T03:52:29.081Z,22.30
2023-02-16T03:53:28.994Z,21.90
2023-02-16T03:54:28.897Z,21.10
2023-02-16T03:55:28.804Z,21.70
2023-02-16T03:56:28.715Z,21.00
2023-02-16T03:57:28.613Z,22.30
2023-02-16T03:58:28.525Z,21.90
2023-02-16T03:59:28.435Z,21.70
2023-02-16T04:00:28.335Z,22.30
2023-02-16T04:01:28.260Z,21.80
2023-02-16T04:02:28.206Z,22.70
2023-02-16T04:03:28.066Z,21.30
2023-02-16T04:04:28.155Z,22.60
2023-02-16T04:05:27.897Z,22.00
2023-02-16T04:06:27.827Z,21.70
2023-02-16T04:07:28.272Z,22.30
2023-02-16T04:08:27.638Z,21.40
2023-02-16T04:09:27.550Z,20.50
2023-02-16T04:10:27.466Z,21.00
2023-02-16T04:11:27.356Z,21.50
2023-02-16T04:12:27.364Z,20.40
2023-02-16T04:13:27.178Z,20.30
2023-02-16T04:14:27.079Z,22.60
2023-02-16T04:15:27.000Z,19.80
2023-02-16T04:16:26.951Z,20.40
2023-02-16T04:17:26.810Z,21.00
2023-02-16T04:18:26.718Z,20.90
2023-02-16T04:19:26.620Z,21.00
2023-02-16T04:20:26.560Z,20.90
2023-02-16T04:21:26.450Z,20.30
2023-02-16T04:22:26.364Z,20.40
2023-02-16T04:23:26.266Z,20.70
2023-02-16T04:24:26.173Z,20.90
2023-02-16T04:25:26.101Z,21.30
2023-02-16T04:26:25.996Z,20.90
2023-02-16T04:27:25.901Z,21.00
2023-02-16T04:28:25.800Z,21.40
2023-02-16T04:29:25.701Z,20.50
2023-02-16T04:30:25.709Z,19.90
2023-02-16T04:31:25.717Z,20.80
2023-02-16T04:32:25.426Z,19.20
2023-02-16T04:33:25.330Z,19.50
2023-02-16T04:34:25.239Z,18.60
2023-02-16T04:35:25.159Z,19.20
2023-02-16T04:36:25.057Z,18.40
2023-02-16T04:37:24.957Z,20.20
2023-02-16T04:38:24.874Z,20.70
2023-02-16T04:39:24.769Z,19.00
2023-02-16T04:40:24.769Z,19.20
2023-02-16T04:41:24.579Z,19.90
2023-02-16T04:42:24.500Z,19.10
2023-02-16T04:43:24.409Z,19.70
2023-02-16T04:44:24.319Z,19.80
2023-02-16T04:45:24.243Z,19.00
2023-02-16T04:46:24.194Z,20.00
2023-02-16T04:47:24.059Z,20.10
2023-02-16T04:48:23.958Z,20.10
2023-02-16T04:49:23.870Z,20.20
2023-02-16T04:50:23.775Z,19.60
2023-02-16T04:51:23.667Z,19.60
2023-02-16T04:52:23.569Z,19.80
2023-02-16T04:53:23.627Z,19.60
2023-02-16T04:54:23.403Z,19.90
2023-02-16T04:55:23.320Z,20.00
2023-02-16T04:56:23.210Z,19.20
2023-02-16T04:57:23.110Z,20.60
2023-02-16T04:58:23.011Z,21.80
2023-02-16T04:59:22.921Z,20.80
2023-02-16T05:00:22.830Z,19.90
2023-02-16T05:01:22.772Z,20.60
2023-02-16T05:02:22.632Z,20.30
2023-02-16T05:03:22.564Z,20.50
2023-02-16T05:04:22.520Z,20.10
2023-02-16T05:05:22.380Z,19.30
2023-02-16T05:06:22.285Z,20.40
2023-02-16T05:07:22.184Z,21.10
2023-02-16T05:08:22.060Z,21.30
2023-02-16T05:09:21.970Z,22.90
2023-02-16T05:10:21.889Z,22.90
2023-02-16T05:11:21.764Z,25.50
2023-02-16T05:12:21.671Z,22.80
2023-02-16T05:13:21.572Z,23.70
2023-02-16T05:14:21.460Z,20.90
2023-02-16T05:15:21.382Z,21.40
2023-02-16T05:16:21.299Z,23.30
2023-02-16T05:17:21.191Z,24.20
2023-02-16T05:18:21.082Z,23.00
2023-02-16T05:19:20.994Z,23.10
2023-02-16T05:20:20.894Z,21.00
2023-02-16T05:21:20.812Z,21.30
2023-02-16T05:22:20.715Z,20.10
2023-02-16T05:23:20.586Z,20.20
2023-02-16T05:24:20.483Z,20.60
2023-02-16T05:25:20.403Z,20.70
2023-02-16T05:26:20.283Z,20.70
2023-02-16T05:27:20.203Z,20.80
2023-02-16T05:28:20.232Z,21.70
2023-02-16T05:29:20.004Z,19.60
2023-02-16T05:30:19.988Z,21.90
2023-02-16T05:31:19.964Z,22.20
2023-02-16T05:32:19.780Z,26.00
2023-02-16T05:33:19.615Z,32.30
2023-02-16T05:34:19.525Z,26.40
2023-02-16T05:35:19.429Z,28.10
2023-02-16T05:36:19.326Z,26.40
2023-02-16T05:37:19.227Z,22.10
2023-02-16T05:38:19.138Z,22.30
2023-02-16T05:39:19.028Z,21.40
2023-02-16T05:40:18.938Z,21.40
2023-02-16T05:41:18.849Z,21.30
2023-02-16T05:42:18.738Z,23.20
2023-02-16T05:43:18.651Z,22.30
2023-02-16T05:44:18.547Z,23.80
2023-02-16T05:45:18.465Z,21.70
2023-02-16T05:46:18.363Z,21.90
2023-02-16T05:47:18.244Z,23.10
2023-02-16T05:48:18.142Z,20.10
2023-02-16T05:49:18.053Z,20.50
2023-02-16T05:50:17.981Z,24.90
2023-02-16T05:51:17.863Z,25.90
2023-02-16T05:52:17.766Z,24.60
2023-02-16T05:53:17.663Z,25.70
2023-02-16T05:54:17.593Z,25.20
2023-02-16T05:55:17.618Z,23.00
2023-02-16T05:56:17.367Z,25.30
2023-02-16T05:57:17.282Z,24.00
2023-02-16T05:58:17.175Z,27.90
2023-02-16T05:59:17.084Z,26.60
2023-02-16T06:00:16.976Z,24.20
2023-02-16T06:01:16.892Z,21.80
2023-02-16T06:02:16.809Z,21.00
2023-02-16T06:03:16.674Z,21.60
2023-02-16T06:04:16.583Z,23.50
2023-02-16T06:05:16.506Z,21.30
2023-02-16T06:06:16.396Z,22.50
2023-02-16T06:07:16.286Z,20.80
2023-02-16T06:08:16.201Z,22.70
2023-02-16T06:09:16.095Z,21.40
2023-02-16T06:10:16.008Z,22.20
2023-02-16T06:11:15.919Z,23.70
2023-02-16T06:12:15.816Z,22.30
2023-02-16T06:13:15.730Z,21.90
2023-02-16T06:14:15.626Z,21.10
2023-02-16T06:15:15.563Z,21.30
2023-02-16T06:16:15.493Z,21.10
2023-02-16T06:17:15.348Z,21.00
2023-02-16T06:18:15.262Z,20.40
2023-02-16T06:19:15.170Z,19.90
2023-02-16T06:20:15.070Z,19.90
2023-02-16T06:21:14.988Z,20.00
2023-02-16T06:22:14.902Z,19.20
2023-02-16T06:23:14.800Z,19.60
2023-02-16T06:24:14.716Z,20.30
2023-02-16T06:25:14.641Z,20.20
2023-02-16T06:26:14.524Z,21.00
2023-02-16T06:27:14.439Z,20.90
2023-02-16T06:28:14.341Z,20.50
2023-02-16T06:29:14.239Z,21.00
2023-02-16T06:30:14.189Z,20.80
2023-02-16T06:31:14.122Z,22.40
2023-02-16T06:32:14.038Z,23.00
2023-02-16T06:33:13.881Z,21.60
2023-02-16T06:34:13.778Z,23.20
2023-02-16T06:35:13.699Z,22.90
2023-02-16T06:36:13.609Z,22.70
2023-02-16T06:37:13.520Z,22.90
2023-02-16T06:38:13.405Z,23.60
2023-02-16T06:39:13.320Z,22.70
2023-02-16T06:40:13.239Z,25.90
2023-02-16T06:41:13.156Z,23.40
2023-02-16T06:42:13.053Z,28.60
2023-02-16T06:43:12.962Z,25.80
2023-02-16T06:44:12.861Z,23.20
2023-02-16T06:45:12.780Z,24.60
2023-02-16T06:46:12.686Z,26.40
2023-02-16T06:47:12.591Z,22.60
2023-02-16T06:48:12.498Z,21.90
2023-02-16T06:49:12.401Z,28.60
2023-02-16T06:50:12.321Z,24.30
2023-02-16T06:51:12.221Z,21.10
2023-02-16T06:52:12.138Z,22.00
2023-02-16T06:53:12.051Z,21.40
2023-02-16T06:54:11.948Z,22.30
2023-02-16T06:55:11.869Z,22.50
2023-02-16T06:56:11.760Z,24.10
2023-02-16T06:57:11.675Z,22.40
2023-02-16T06:58:11.591Z,23.50
2023-02-16T06:59:11.498Z,21.30
2023-02-16T07:00:11.414Z,21.20
2023-02-16T07:01:11.392Z,21.40
2023-02-16T07:02:11.224Z,21.40
2023-02-16T07:03:11.196Z,20.90
2023-02-16T07:04:11.045Z,20.60
2023-02-16T07:05:10.982Z,20.60
2023-02-16T07:06:10.862Z,20.20
2023-02-16T07:07:10.782Z,20.10
2023-02-16T07:08:10.675Z,20.00
2023-02-16T07:09:12.604Z,20.10
2023-02-16T07:10:10.483Z,18.80
2023-02-16T07:11:10.402Z,19.60
2023-02-16T07:12:10.264Z,19.60
2023-02-16T07:13:10.171Z,21.00
2023-02-16T07:14:10.089Z,20.30
2023-02-16T07:15:09.993Z,19.10
2023-02-16T07:16:09.960Z,18.40
2023-02-16T07:17:09.786Z,18.20
2023-02-16T07:18:09.713Z,19.10
2023-02-16T07:19:09.594Z,20.20
2023-02-16T07:20:09.503Z,19.20
2023-02-16T07:21:09.447Z,19.10
2023-02-16T07:22:09.297Z,19.30
2023-02-16T07:23:09.205Z,19.50
2023-02-16T07:24:09.104Z,19.20
2023-02-16T07:25:09.028Z,19.20
2023-02-16T07:26:08.923Z,20.10
2023-02-16T07:27:08.827Z,18.60
2023-02-16T07:28:08.734Z,18.10
2023-02-16T07:29:08.645Z,18.00
2023-02-16T07:30:08.579Z,19.00
2023-02-16T07:31:08.685Z,19.30
2023-02-16T07:32:08.481Z,19.80
2023-02-16T07:33:08.284Z,18.30
2023-02-16T07:34:08.184Z,18.00
2023-02-16T07:35:08.103Z,17.80
2023-02-16T07:36:07.985Z,18.00
2023-02-16T07:37:07.896Z,18.60
2023-02-16T07:38:07.809Z,18.60
2023-02-16T07:39:07.718Z,17.90
2023-02-16T07:40:07.617Z,17.60
2023-02-16T07:41:09.756Z,18.80
2023-02-16T07:42:07.414Z,19.40
2023-02-16T07:43:07.324Z,19.30
2023-02-16T07:44:07.208Z,18.10
2023-02-16T07:45:07.124Z,19.00
2023-02-16T07:46:07.080Z,19.70
2023-02-16T07:47:06.925Z,19.30
2023-02-16T07:48:06.823Z,19.10
2023-02-16T07:49:06.723Z,19.30
2023-02-16T07:50:06.634Z,19.50
2023-02-16T07:51:06.832Z,19.40
2023-02-16T07:52:06.435Z,19.90
2023-02-16T07:53:06.351Z,20.90
2023-02-16T07:54:06.234Z,19.50
2023-02-16T07:55:06.194Z,18.60
2023-02-16T07:56:06.046Z,19.10
2023-02-16T07:57:05.954Z,20.00
2023-02-16T07:58:05.863Z,19.90
2023-02-16T07:59:05.794Z,19.90
2023-02-16T08:00:05.669Z,19.90
2023-02-16T08:01:05.965Z,19.50
2023-02-16T08:02:05.534Z,19.60
2023-02-16T08:03:05.567Z,19.30
2023-02-16T08:04:05.270Z,21.40
2023-02-16T08:05:05.195Z,19.40
2023-02-16T08:06:05.084Z,19.60
2023-02-16T08:07:04.987Z,20.00
2023-02-16T08:08:04.888Z,19.90
2023-02-16T08:09:04.806Z,19.60
2023-02-16T08:10:04.710Z,20.10
2023-02-16T08:11:04.848Z,19.20
2023-02-16T08:12:04.477Z,20.70
2023-02-16T08:13:04.381Z,20.10
2023-02-16T08:14:04.259Z,20.50
2023-02-16T08:15:04.179Z,19.80
2023-02-16T08:16:04.287Z,19.70
2023-02-16T08:17:04.002Z,20.00
2023-02-16T08:18:03.820Z,20.90
2023-02-16T08:19:03.732Z,19.90
2023-02-16T08:20:03.612Z,21.10
2023-02-16T08:21:04.721Z,20.90
2023-02-16T08:22:03.376Z,21.20
2023-02-16T08:23:03.282Z,19.80
2023-02-16T08:24:03.149Z,20.10
2023-02-16T08:25:03.545Z,20.40
2023-02-16T08:26:03.276Z,19.80
2023-02-16T08:27:02.793Z,21.00
2023-02-16T08:28:02.666Z,19.90
2023-02-16T08:29:02.554Z,21.80
2023-02-16T08:30:02.518Z,20.80
2023-02-16T08:31:02.360Z,20.10
2023-02-16T08:32:02.245Z,19.30
2023-02-16T08:33:02.099Z,20.20
2023-02-16T08:34:02.002Z,19.20
2023-02-16T08:35:01.887Z,20.40
2023-02-16T08:36:01.998Z,21.80
2023-02-16T08:37:01.648Z,19.80
2023-02-16T08:38:01.526Z,21.80
2023-02-16T08:39:01.412Z,21.00
2023-02-16T08:40:01.316Z,21.10
2023-02-16T08:41:01.177Z,21.00
2023-02-16T08:42:01.064Z,20.20
2023-02-16T08:43:00.941Z,19.70
2023-02-16T08:44:00.882Z,19.90
2023-02-16T08:45:00.740Z,19.80
2023-02-16T08:46:00.668Z,19.70
2023-02-16T08:47:00.472Z,20.70
2023-02-16T08:48:00.358Z,21.00
2023-02-16T08:49:00.385Z,20.20
2023-02-16T08:50:00.157Z,20.20
2023-02-16T08:51:00.025Z,20.40
2023-02-16T08:51:59.893Z,18.80
2023-02-16T08:52:59.774Z,20.80
2023-02-16T08:53:59.653Z,20.50
2023-02-16T08:54:59.558Z,20.20
2023-02-16T08:55:59.421Z,19.00
2023-02-16T08:56:59.370Z,19.80
2023-02-16T08:57:59.183Z,20.70
2023-02-16T08:58:59.066Z,20.30
2023-02-16T08:59:58.965Z,21.90
2023-02-16T09:00:58.865Z,21.70
2023-02-16T09:01:58.720Z,20.70
2023-02-16T09:02:58.587Z,21.10
2023-02-16T09:03:58.475Z,21.80
2023-02-16T09:04:58.358Z,21.70
2023-02-16T09:05:58.234Z,20.60
2023-02-16T09:06:58.134Z,20.50
2023-02-16T09:07:57.995Z,20.90
2023-02-16T09:08:57.874Z,20.40
2023-02-16T09:09:57.757Z,22.80
2023-02-16T09:10:57.625Z,21.10
2023-02-16T09:11:57.494Z,23.30
2023-02-16T09:12:57.363Z,21.60
2023-02-16T09:13:57.246Z,21.20
2023-02-16T09:14:57.141Z,20.50
2023-02-16T09:15:57.001Z,20.70
2023-02-16T09:16:56.940Z,20.90
2023-02-16T09:17:56.761Z,21.80
2023-02-16T09:18:56.616Z,21.50
2023-02-16T09:19:56.504Z,22.90
2023-02-16T09:20:56.346Z,21.80
2023-02-16T09:21:56.247Z,24.00
2023-02-16T09:22:56.079Z,23.00
2023-02-16T09:23:55.993Z,24.20
2023-02-16T09:24:55.826Z,22.30
2023-02-16T09:25:55.687Z,22.40
2023-02-16T09:26:55.550Z,21.60
2023-02-16T09:27:55.438Z,23.90
2023-02-16T09:28:56.401Z,23.20
2023-02-16T09:29:55.206Z,22.70
2023-02-16T09:30:55.104Z,22.50
2023-02-16T09:31:54.967Z,23.70
2023-02-16T09:32:54.788Z,23.00
2023-02-16T09:33:54.658Z,25.00
2023-02-16T09:34:54.546Z,24.30
2023-02-16T09:35:54.409Z,25.10
2023-02-16T09:36:54.279Z,25.50
2023-02-16T09:37:54.233Z,25.10
2023-02-16T09:38:54.020Z,24.80
2023-02-16T09:39:53.908Z,24.00
2023-02-16T09:40:53.760Z,24.30
2023-02-16T09:41:53.633Z,24.50
2023-02-16T09:42:53.500Z,24.00
2023-02-16T09:43:53.372Z,25.50
2023-02-16T09:44:53.260Z,23.60
2023-02-16T09:45:53.126Z,25.70
2023-02-16T09:46:52.972Z,24.00
2023-02-16T09:47:52.906Z,25.30
2023-02-16T09:48:52.718Z,23.30
2023-02-16T09:49:52.591Z,25.00
2023-02-16T09:50:54.271Z,22.90
2023-02-16T09:51:52.337Z,22.50
2023-02-16T09:52:52.566Z,22.70
2023-02-16T09:53:52.072Z,23.80
2023-02-16T09:54:51.941Z,24.00
2023-02-16T09:55:51.803Z,23.80
2023-02-16T09:56:51.657Z,22.50
2023-02-16T09:57:51.533Z,22.80
2023-02-16T09:58:51.385Z,21.90
2023-02-16T09:59:51.264Z,21.90
2023-02-16T10:00:51.146Z,22.50
2023-02-16T10:01:50.982Z,22.70
2023-02-16T10:02:50.911Z,22.70
2023-02-16T10:03:50.733Z,23.70
2023-02-16T10:04:50.584Z,23.10
2023-02-16T10:05:50.456Z,22.60
2023-02-16T10:06:50.306Z,23.50
2023-02-16T10:07:50.174Z,22.40
2023-02-16T10:08:50.036Z,22.60
2023-02-16T10:09:49.897Z,22.30
2023-02-16T10:10:49.777Z,23.40
2023-02-16T10:11:49.629Z,22.10
2023-02-16T10:12:49.486Z,22.50
2023-02-16T10:13:49.359Z,22.50
2023-02-16T10:14:49.213Z,21.90
2023-02-16T10:15:49.130Z,22.90
2023-02-16T10:16:48.938Z,22.10
2023-02-16T10:17:48.798Z,24.10
2023-02-16T10:18:48.658Z,24.20
2023-02-16T10:19:48.546Z,22.50
2023-02-16T10:20:48.408Z,23.10
2023-02-16T10:21:48.266Z,23.80
2023-02-16T10:22:48.110Z,22.00
2023-02-16T10:23:47.979Z,23.60
2023-02-16T10:24:47.840Z,23.80
2023-02-16T10:25:47.729Z,23.20
2023-02-16T10:26:47.591Z,22.10
2023-02-16T10:27:47.454Z,22.60
2023-02-16T10:28:47.317Z,24.10
2023-02-16T10:29:47.181Z,23.80
2023-02-16T10:30:47.076Z,23.50
2023-02-16T10:31:46.977Z,22.70
2023-02-16T10:32:46.814Z,23.20
2023-02-16T10:33:46.682Z,23.60
2023-02-16T10:34:46.543Z,21.80
2023-02-16T10:35:46.439Z,22.60
2023-02-16T10:36:46.276Z,23.70
2023-02-16T10:37:46.144Z,23.60
2023-02-16T10:38:46.005Z,23.20
2023-02-16T10:39:45.873Z,23.80
2023-02-16T10:40:45.778Z,23.90
2023-02-16T10:41:45.607Z,25.50
2023-02-16T10:42:45.507Z,24.90
2023-02-16T10:43:45.360Z,24.50
2023-02-16T10:44:45.216Z,24.00
2023-02-16T10:45:47.670Z,23.00
2023-02-16T10:46:45.026Z,24.60
2023-02-16T10:47:44.830Z,24.40
2023-02-16T10:48:44.710Z,24.60
2023-02-16T10:49:44.580Z,24.80
2023-02-16T10:50:44.444Z,25.80
2023-02-16T10:51:44.300Z,25.10
2023-02-16T10:52:44.177Z,25.80
2023-02-16T10:53:44.043Z,24.20
2023-02-16T10:54:43.928Z,25.90
2023-02-16T10:55:43.812Z,24.90
2023-02-16T10:56:43.671Z,25.20
2023-02-16T10:57:43.523Z,25.20
2023-02-16T10:58:43.392Z,25.90
2023-02-16T10:59:43.286Z,24.00
2023-02-16T11:00:43.142Z,24.70
2023-02-16T11:01:43.032Z,26.40
2023-02-16T11:02:42.851Z,25.40
2023-02-16T11:03:42.694Z,25.60
2023-02-16T11:04:42.572Z,25.20
2023-02-16T11:05:42.444Z,26.30
2023-02-16T11:06:42.265Z,24.80
2023-02-16T11:07:42.137Z,26.50
2023-02-16T11:08:41.976Z,25.20
2023-02-16T11:09:41.847Z,25.90
2023-02-16T11:10:41.713Z,25.20
2023-02-16T11:11:41.557Z,25.10
2023-02-16T11:12:41.418Z,25.30
2023-02-16T11:13:41.269Z,24.70
2023-02-16T11:14:41.128Z,26.00
2023-02-16T11:15:41.039Z,25.40
2023-02-16T11:16:40.867Z,25.10
2023-02-16T11:17:40.699Z,25.80
2023-02-16T11:18:40.570Z,24.50
2023-02-16T11:19:40.427Z,24.80
2023-02-16T11:20:40.277Z,24.60
2023-02-16T11:21:40.132Z,24.30
2023-02-16T11:22:40.033Z,25.80
2023-02-16T11:23:39.841Z,25.80
2023-02-16T11:24:39.701Z,26.10
2023-02-16T11:25:39.578Z,26.10
2023-02-16T11:26:39.428Z,24.50
2023-02-16T11:27:39.292Z,26.20
2023-02-16T11:28:39.140Z,25.60
2023-02-16T11:29:39.012Z,25.60
2023-02-16T11:30:38.879Z,24.70
2023-02-16T11:31:38.782Z,25.30
2023-02-16T11:32:38.584Z,25.60
2023-02-16T11:33:38.434Z,26.20
2023-02-16T11:34:38.274Z,25.70
2023-02-16T11:35:38.147Z,24.70
2023-02-16T11:36:38.002Z,25.60
2023-02-16T11:37:37.854Z,25.30
2023-02-16T11:38:37.719Z,25.10
2023-02-16T11:39:37.562Z,25.90
2023-02-16T11:40:37.440Z,26.20
2023-02-16T11:41:37.296Z,26.10
2023-02-16T11:42:37.140Z,26.70
2023-02-16T11:43:36.989Z,25.10
2023-02-16T11:44:36.854Z,25.80
2023-02-16T11:45:36.715Z,25.40
2023-02-16T11:46:36.608Z,24.10
2023-02-16T11:47:36.407Z,25.80
2023-02-16T11:48:36.254Z,26.40
2023-02-16T11:49:36.131Z,25.30
2023-02-16T11:50:35.976Z,25.40
2023-02-16T11:51:35.842Z,25.50
2023-02-16T11:52:35.679Z,25.50
2023-02-16T11:53:35.553Z,25.80
2023-02-16T11:54:35.406Z,26.30
2023-02-16T11:55:35.257Z,25.70
2023-02-16T11:56:35.110Z,27.80
2023-02-16T11:57:34.969Z,26.10
2023-02-16T11:58:34.818Z,26.10
2023-02-16T11:59:34.669Z,25.00
2023-02-16T12:00:34.532Z,25.40
2023-02-16T12:01:34.379Z,25.70
2023-02-16T12:02:34.230Z,26.20
2023-02-16T12:03:34.122Z,25.20
2023-02-16T12:04:33.950Z,24.90
2023-02-16T12:05:33.847Z,25.90
2023-02-16T12:06:33.672Z,26.00
2023-02-16T12:07:33.526Z,26.90
2023-02-16T12:08:33.384Z,26.90
2023-02-16T12:09:33.220Z,26.80
2023-02-16T12:10:33.101Z,24.70
2023-02-16T12:11:32.945Z,25.30
2023-02-16T12:12:32.804Z,26.60
2023-02-16T12:13:32.672Z,26.10
2023-02-16T12:14:32.499Z,25.30
2023-02-16T12:15:32.371Z,27.10
2023-02-16T12:16:32.230Z,25.60
2023-02-16T12:17:32.072Z,26.00
2023-02-16T12:18:31.923Z,27.40
2023-02-16T12:19:31.783Z,26.40
2023-02-16T12:20:31.642Z,26.10
2023-02-16T12:21:31.500Z,24.60
2023-02-16T12:22:31.341Z,26.80
2023-02-16T12:23:31.205Z,27.10
2023-02-16T12:24:31.054Z,26.20
2023-02-16T12:25:30.923Z,25.50
2023-02-16T12:26:30.754Z,27.00
2023-02-16T12:27:30.611Z,27.00
2023-02-16T12:28:30.469Z,25.90
2023-02-16T12:29:30.325Z,26.40
2023-02-16T12:30:30.241Z,27.40
2023-02-16T12:31:30.073Z,27.20
2023-02-16T12:32:29.893Z,26.20
2023-02-16T12:33:29.743Z,25.10
2023-02-16T12:34:29.600Z,26.60
2023-02-16T12:35:29.495Z,25.70
2023-02-16T12:36:29.323Z,27.00
2023-02-16T12:37:29.183Z,25.60
2023-02-16T12:38:29.026Z,25.90
2023-02-16T12:39:28.886Z,26.00
2023-02-16T12:40:28.750Z,26.70
2023-02-16T12:41:28.602Z,26.50
2023-02-16T12:42:28.446Z,27.40
2023-02-16T12:43:28.313Z,26.30
2023-02-16T12:44:28.163Z,26.80
2023-02-16T12:45:28.054Z,25.80
2023-02-16T12:46:27.874Z,25.30
2023-02-16T12:47:27.750Z,25.80
2023-02-16T12:48:27.583Z,27.40
2023-02-16T12:49:27.486Z,25.30
2023-02-16T12:50:27.314Z,26.90
2023-02-16T12:51:27.153Z,25.60